Duco, Kentucky
Current Conditions -  °F | °C
As of 8:53 AM on Monday 20 Oct 2014 (Local Time) from KJKL Reporting Station
Clear Clear  
Wind Chill:   Ceiling: Unl
Heat Index:   Visibility: 10mi
Dew Point:   Wind: 3mph
Humidity: 86%   Direction: NA
Pressure: 30.08"   Gusts: NA
Location:  37.7261°N, 83.0786°W
Report Text: KJKL 201253Z AUTO VRB03KT 10SM CLR 07/05 A3008 RMK AO2 SLP185 T00720050
Loading
Personal Weather Stations






























Interactive Weather Map
Tropical Storm Tracking
New forecast layout! Learn more

10-Day Weather Forecast

Advertisements
Track Severe Weather on mobile